CST,Max TemperatureF,Mean TemperatureF,Min TemperatureF,Max Dew PointF,MeanDew PointF,Min DewpointF,Max Humidity, Mean Humidity, Min Humidity, Max Sea Level PressureIn, Mean Sea Level PressureIn, Min Sea Level PressureIn, Max VisibilityMiles, Mean VisibilityMiles, Min VisibilityMiles, Max Wind SpeedMPH, Mean Wind SpeedMPH, Max Gust SpeedMPH,PrecipitationIn, CloudCover, Events, WindDirDegrees
2013-11-1,80,66,53,63,56,52,100,85,43,29.99,29.89,29.83,10,6,0,14,2,,0.32,0,Fog,171
2013-11-2,73,62,50,53,45,36,78,55,28,30.23,30.15,29.99,10,10,10,16,11,25,0.00,0,,352
2013-11-3,71,56,43,52,48,41,93,69,49,30.22,30.16,30.09,10,10,10,10,5,,0.00,1,,88
2013-11-4,71,64,57,67,63,51,100,89,78,30.10,30.04,30.00,10,7,1,14,5,20,0.14,7,Rain,85
2013-11-5,79,74,70,72,68,65,94,83,66,30.05,30.01,29.97,10,10,8,16,7,25,0.01,8,Rain,125
2013-11-6,80,68,55,72,65,46,96,83,62,30.27,30.08,29.99,10,9,5,16,6,24,0.00,5,Rain,16
2013-11-7,66,57,48,42,39,37,69,52,34,30.40,30.34,30.26,10,10,10,18,14,24,0.00,0,,20
2013-11-8,64,57,50,49,42,35,86,62,33,30.37,30.29,30.19,10,10,10,14,6,21,0.00,0,,62
2013-11-9,71,62,53,58,53,45,89,72,57,30.22,30.18,30.14,10,10,10,7,3,,0.00,1,,82
2013-11-10,73,65,55,56,51,45,87,65,35,30.30,30.24,30.20,10,10,10,10,4,,0.00,4,,34
2013-11-11,75,64,52,55,53,50,97,74,43,30.27,30.21,30.15,10,10,10,7,3,,0.00,0,,24
2013-11-12,73,62,50,56,50,42,93,75,49,30.56,30.41,30.23,10,10,9,24,10,30,0.01,4,,13
2013-11-13,57,47,37,40,29,24,83,56,28,30.62,30.53,30.42,10,10,10,16,11,28,0.00,0,,32
2013-11-14,64,50,37,51,43,33,83,72,56,30.41,30.24,30.07,10,10,10,13,4,18,0.00,0,,84
2013-11-15,79,67,55,66,60,49,96,79,56,30.06,29.99,29.91,10,10,7,13,5,,0.00,3,,128
2013-11-16,82,72,62,73,68,60,97,90,69,29.95,29.89,29.81,10,8,2,20,5,24,0.01,5,,157
2013-11-17,84,76,69,73,72,68,100,87,65,29.94,29.88,29.82,10,7,0,20,8,25,0.00,3,Fog,200
2013-11-18,77,72,66,72,66,43,100,81,39,30.12,30.01,29.94,10,4,0,14,3,20,0.01,8,Fog-Rain,32
2013-11-19,70,64,57,50,45,40,72,53,43,30.14,30.07,30.03,10,10,10,14,9,24,0.00,2,,80
2013-11-20,73,65,57,67,59,43,94,76,55,30.04,29.99,29.93,10,10,5,13,8,21,0.03,7,Rain,105
2013-11-21,80,74,69,75,72,66,94,88,74,30.09,30.02,29.97,10,10,2,16,10,,0.08,7,Rain,141
2013-11-22,73,58,44,72,53,41,100,92,86,30.29,30.18,30.06,10,7,1,26,11,34,0.89,8,Rain-Thunderstorm,355
2013-11-23,50,46,43,45,43,38,93,86,71,30.38,30.33,30.28,10,9,4,22,15,29,0.03,8,Rain,5
2013-11-24,50,48,44,37,32,30,71,57,48,30.42,30.36,30.31,10,10,10,21,14,28,0.00,8,Rain,31
2013-11-25,44,42,39,43,39,34,100,90,68,30.28,30.13,30.01,10,6,1,18,10,24,1.27,8,Rain-Thunderstorm,12
2013-11-26,45,42,39,39,37,35,93,86,76,30.30,30.14,30.04,10,9,3,18,14,30,0.39,7,Rain,329
2013-11-27,50,42,33,34,29,25,89,64,38,30.46,30.38,30.30,10,10,10,13,8,18,0.00,0,,346
2013-11-28,55,42,30,42,36,29,96,76,56,30.48,30.43,30.38,10,10,10,7,4,,0.00,0,,86
2013-11-29,62,49,36,39,37,30,93,64,41,30.52,30.45,30.40,10,10,10,10,5,,0.00,0,,84
2013-11-30,71,56,41,54,48,38,96,76,51,30.40,30.32,30.23,10,10,7,10,4,,0.00,2,,89